This is the latest recevied weather packets stored in our database for station/object W5HKR. If no packets are shown the sender has not sent any weather packets the latest 10 day(s).
| Time | Temp. | Humidity | Pressure | Rain* | Wind** | Luminosity | Snow |
|---|---|---|---|---|---|---|---|
| 1777324600 | 18.33° C | 91% | 990.6 hPa | 0 mm | - | - | - |
| 1777324409 | 18.33° C | 91% | 990.6 hPa | 0 mm | - | - | - |
| 1777324107 | 18.33° C | 91% | 990.6 hPa | 0 mm | - | - | - |
| 1777323808 | 18.33° C | 91% | 990.6 hPa | 0 mm | - | - | - |
| 1777323508 | 31.67° C | 66% | 981.6 hPa | 0 mm | - | - | - |
| 1777323211 | 31.67° C | 67% | 981.7 hPa | 0 mm | - | - | - |
| 1777322907 | 18.33° C | 91% | 990.6 hPa | 0 mm | - | - | - |
| 1777322607 | 18.33° C | 91% | 990.6 hPa | 0 mm | - | - | - |
| 1777322440 | 18.33° C | 91% | 990.6 hPa | 0 mm | - | - | - |
| 1777322308 | 18.33° C | 91% | 990.6 hPa | 0 mm | - | - | - |
| 1777322008 | 30.56° C | 68% | 981.4 hPa | 0 mm | - | - | - |
| 1777321708 | 18.33° C | 91% | 990.6 hPa | 0 mm | - | - | - |
| 1777321408 | 30.56° C | 71% | 982 hPa | 0 mm | - | - | - |
| 1777321361 | 18.33° C | 91% | 990.6 hPa | 0 mm | - | - | - |
| 1777321110 | 18.33° C | 91% | 990.6 hPa | 0 mm | - | - | - |
| 1777320808 | 18.33° C | 91% | 990.6 hPa | 0 mm | - | - | - |
| 1777320509 | 30° C | 71% | 982.1 hPa | 0 mm | - | - | - |
| 1777320281 | 18.33° C | 91% | 990.6 hPa | 0 mm | - | - | - |
| 1777319908 | 30° C | 71% | 982.3 hPa | 0 mm | - | - | - |
| 1777319607 | 30° C | 71% | 981.9 hPa | 0 mm | - | - | - |
| 1777319200 | 18.33° C | 91% | 990.6 hPa | 0 mm | - | - | - |
| 1777319007 | 30° C | 71% | 982.3 hPa | 0 mm | - | - | - |
| 1777318709 | 18.33° C | 91% | 990.6 hPa | 0 mm | - | - | - |
| 1777318408 | 30° C | 74% | 982.1 hPa | 0 mm | - | - | - |
| 1777318108 | 18.33° C | 91% | 990.6 hPa | 0 mm | - | - | - |
* Rain latest hour (hover to see other rain measurements)
** Current wind speed in m/s (hover to see current wind gust speed)